createdAt,value
2019-02-12T00:04:45.813Z,3.20
2019-02-12T00:09:51.318Z,3.10
2019-02-12T00:14:56.759Z,3.10
2019-02-12T00:20:02.309Z,3.10
2019-02-12T00:25:07.696Z,3.20
2019-02-12T00:30:13.141Z,3.30
2019-02-12T00:35:18.480Z,3.40
2019-02-12T00:40:23.835Z,3.50
2019-02-12T00:45:29.219Z,3.60
2019-02-12T00:50:34.574Z,3.60
2019-02-12T00:55:39.974Z,3.60
2019-02-12T01:00:45.490Z,3.60
2019-02-12T01:05:50.815Z,3.60
2019-02-12T01:10:56.159Z,3.60
2019-02-12T01:16:01.663Z,3.60
2019-02-12T01:21:06.989Z,3.60
2019-02-12T01:26:12.329Z,3.50
2019-02-12T01:31:17.738Z,3.60
2019-02-12T01:36:23.136Z,3.50
2019-02-12T01:41:28.455Z,3.40
2019-02-12T01:46:33.714Z,3.40
2019-02-12T01:51:39.030Z,3.50
2019-02-12T01:56:44.462Z,3.60
2019-02-12T02:01:49.825Z,3.60
2019-02-12T02:06:55.179Z,3.60
2019-02-12T02:12:00.557Z,3.60
2019-02-12T02:17:05.837Z,3.60
2019-02-12T02:22:11.210Z,3.50
2019-02-12T02:27:16.548Z,3.40
2019-02-12T02:32:21.965Z,3.30
2019-02-12T02:37:27.415Z,3.20
2019-02-12T02:42:32.702Z,3.10
2019-02-12T02:47:38.020Z,3.00
2019-02-12T02:52:43.388Z,2.90
2019-02-12T02:57:48.856Z,2.80
2019-02-12T03:02:54.186Z,2.70
2019-02-12T03:07:59.657Z,2.70
2019-02-12T03:13:05.073Z,2.70
2019-02-12T03:18:10.542Z,2.70
2019-02-12T03:23:15.863Z,2.70
2019-02-12T03:28:21.161Z,2.70
2019-02-12T03:33:26.615Z,2.60
2019-02-12T03:38:31.937Z,2.50
2019-02-12T03:43:37.215Z,2.30
2019-02-12T03:48:42.580Z,2.20
2019-02-12T03:53:47.875Z,2.10
2019-02-12T03:58:53.297Z,2.10
2019-02-12T04:03:58.654Z,2.10
2019-02-12T04:09:05.007Z,2.10
2019-02-12T04:14:10.439Z,2.20
2019-02-12T04:19:15.745Z,2.20
2019-02-12T04:24:21.028Z,2.30
2019-02-12T04:29:26.333Z,2.30
2019-02-12T04:34:31.710Z,2.20
2019-02-12T04:39:37.243Z,2.10
2019-02-12T04:44:42.614Z,2.00
2019-02-12T04:49:47.983Z,2.00
2019-02-12T04:54:53.356Z,1.90
2019-02-12T04:59:58.790Z,1.90
2019-02-12T05:05:04.281Z,2.00
2019-02-12T05:10:11.914Z,2.00
2019-02-12T05:15:17.232Z,2.20
2019-02-12T05:20:22.545Z,2.20
2019-02-12T05:25:27.893Z,2.10
2019-02-12T05:30:33.259Z,2.00
2019-02-12T05:35:38.739Z,1.80
2019-02-12T05:40:44.066Z,1.80
2019-02-12T05:45:49.337Z,1.70
2019-02-12T05:50:54.752Z,1.70
2019-02-12T05:56:00.047Z,1.70
2019-02-12T06:01:05.385Z,1.70
2019-02-12T06:06:10.713Z,1.80
2019-02-12T06:11:16.016Z,2.00
2019-02-12T06:16:21.348Z,2.10
2019-02-12T06:21:26.680Z,2.20
2019-02-12T06:26:32.046Z,2.20
2019-02-12T06:31:37.405Z,2.30
2019-02-12T06:36:42.753Z,2.20
2019-02-12T06:41:48.090Z,2.20
2019-02-12T06:46:53.661Z,2.20
2019-02-12T06:51:59.027Z,2.10
2019-02-12T06:57:04.421Z,2.10
2019-02-12T07:03:03.433Z,2.00
2019-02-12T07:09:16.145Z,2.10
2019-02-12T07:14:51.193Z,2.10
2019-02-12T07:20:40.935Z,2.20
2019-02-12T07:26:42.514Z,2.40
2019-02-12T07:32:37.874Z,2.70
2019-02-12T07:38:27.424Z,3.10
2019-02-12T07:44:36.757Z,3.40
2019-02-12T07:50:53.176Z,3.80
2019-02-12T07:56:28.469Z,4.50
2019-02-12T08:02:33.788Z,5.10
2019-02-12T08:09:01.485Z,6.70
2019-02-12T08:14:54.724Z,9.40
2019-02-12T08:21:07.731Z,9.20
2019-02-12T08:27:08.029Z,8.50
2019-02-12T08:33:03.082Z,7.90
2019-02-12T08:38:51.384Z,7.70
2019-02-12T08:44:28.448Z,7.60
2019-02-12T08:50:03.885Z,7.50
2019-02-12T08:56:04.030Z,7.20
2019-02-12T09:02:48.601Z,7.10
2019-02-12T09:08:38.668Z,7.10
2019-02-12T09:14:16.530Z,7.10
2019-02-12T09:19:45.309Z,7.30
2019-02-12T09:25:54.294Z,7.70
2019-02-12T09:32:07.601Z,7.90
2019-02-12T09:38:24.163Z,8.00
2019-02-12T09:44:26.957Z,8.10
2019-02-12T09:50:26.842Z,8.00
2019-02-12T09:55:51.928Z,7.90
2019-02-12T10:01:47.999Z,8.00
2019-02-12T10:07:30.724Z,8.20
2019-02-12T10:12:59.116Z,8.60
2019-02-12T10:18:44.106Z,9.10
2019-02-12T10:24:26.138Z,9.60
2019-02-12T10:30:19.053Z,10.00
2019-02-12T10:35:24.471Z,10.50
2019-02-12T10:40:29.838Z,10.60
2019-02-12T10:45:35.257Z,10.50
2019-02-12T10:50:40.587Z,10.50
2019-02-12T10:55:46.052Z,10.50
2019-02-12T11:00:51.433Z,10.50
2019-02-12T11:05:57.097Z,10.70
2019-02-12T11:11:02.462Z,10.70
2019-02-12T11:16:08.013Z,10.70
2019-02-12T11:21:13.709Z,10.60
2019-02-12T11:26:19.105Z,10.60
2019-02-12T11:31:24.566Z,10.50
2019-02-12T11:36:29.973Z,10.40
2019-02-12T11:41:37.158Z,10.50
2019-02-12T11:46:42.521Z,10.50
2019-02-12T11:51:47.967Z,10.50
2019-02-12T11:56:53.357Z,10.30
2019-02-12T12:01:58.891Z,10.20
2019-02-12T12:07:04.322Z,10.20
2019-02-12T12:12:09.719Z,10.30
2019-02-12T12:17:15.034Z,10.40
2019-02-12T12:22:20.387Z,10.50
2019-02-12T12:27:25.736Z,10.70
2019-02-12T12:32:31.173Z,10.80
2019-02-12T12:37:36.473Z,10.90
2019-02-12T12:42:41.998Z,11.00
2019-02-12T12:47:47.364Z,10.90
2019-02-12T12:52:52.762Z,10.80
2019-02-12T12:57:58.512Z,10.70
2019-02-12T13:03:03.912Z,10.50
2019-02-12T13:08:09.373Z,10.30
2019-02-12T13:13:14.698Z,10.40
2019-02-12T13:18:20.031Z,10.70
2019-02-12T13:23:25.399Z,10.80
2019-02-12T13:28:30.875Z,10.90
2019-02-12T13:33:36.246Z,10.80
2019-02-12T13:38:41.535Z,10.50
2019-02-12T13:43:46.871Z,10.30
2019-02-12T13:48:52.554Z,10.20
2019-02-12T13:53:57.968Z,10.20
2019-02-12T13:59:03.262Z,10.30
2019-02-12T14:04:08.805Z,10.40
2019-02-12T14:09:14.281Z,10.50
2019-02-12T14:14:19.809Z,10.50
2019-02-12T14:19:25.158Z,10.50
2019-02-12T14:24:30.491Z,10.40
2019-02-12T14:29:36.061Z,10.30
2019-02-12T14:34:41.508Z,10.00
2019-02-12T14:39:46.915Z,9.80
2019-02-12T14:44:52.379Z,9.50
2019-02-12T14:49:58.024Z,9.40
2019-02-12T14:55:03.355Z,9.50
2019-02-12T15:00:12.030Z,9.60
2019-02-12T15:05:17.370Z,9.70
2019-02-12T15:10:22.738Z,9.60
2019-02-12T15:15:28.089Z,9.50
2019-02-12T15:20:33.547Z,9.30
2019-02-12T15:25:41.992Z,9.20
2019-02-12T15:30:45.927Z,8.90
2019-02-12T15:35:51.403Z,8.70
2019-02-12T15:40:59.079Z,8.60
2019-02-12T15:46:04.434Z,8.50
2019-02-12T15:51:09.714Z,8.50
2019-02-12T15:56:15.116Z,8.40
2019-02-12T16:01:20.497Z,8.20
2019-02-12T16:06:25.813Z,8.00
2019-02-12T16:11:31.089Z,7.80
2019-02-12T16:16:37.676Z,7.60
2019-02-12T16:21:43.111Z,7.50
2019-02-12T16:26:48.543Z,7.40
2019-02-12T16:31:53.956Z,7.30
2019-02-12T16:36:59.444Z,7.20
2019-02-12T16:42:04.906Z,7.00
2019-02-12T16:47:10.279Z,6.80
2019-02-12T16:52:20.815Z,6.70
2019-02-12T16:57:22.711Z,6.50
2019-02-12T17:02:28.002Z,6.50
2019-02-12T17:07:33.521Z,6.40
2019-02-12T17:12:39.055Z,6.30
2019-02-12T17:17:44.413Z,6.30
2019-02-12T17:22:49.739Z,6.20
2019-02-12T17:27:55.529Z,6.20
2019-02-12T17:33:01.034Z,6.00
2019-02-12T17:38:06.434Z,6.00
2019-02-12T17:43:14.652Z,5.90
2019-02-12T17:48:19.992Z,5.90
2019-02-12T17:53:25.310Z,5.80
2019-02-12T17:58:30.654Z,5.70
2019-02-12T18:03:36.038Z,5.70
2019-02-12T18:08:44.401Z,5.60
2019-02-12T18:13:48.644Z,5.60
2019-02-12T18:18:54.230Z,5.50
2019-02-12T18:24:00.037Z,5.50
2019-02-12T18:29:08.381Z,5.50
2019-02-12T18:34:13.754Z,5.50
2019-02-12T18:39:19.108Z,5.40
2019-02-12T18:44:24.498Z,5.40
2019-02-12T18:49:29.960Z,5.40
2019-02-12T18:54:35.487Z,5.30
2019-02-12T18:59:40.840Z,5.20
2019-02-12T19:04:46.305Z,5.20
2019-02-12T19:09:51.867Z,5.10
2019-02-12T19:14:57.338Z,5.10
2019-02-12T19:20:02.683Z,5.00
2019-02-12T19:25:08.940Z,5.00
2019-02-12T19:30:16.254Z,4.90
2019-02-12T19:35:23.994Z,4.90
2019-02-12T19:40:29.856Z,4.80
2019-02-12T19:45:35.304Z,4.80
2019-02-12T19:50:40.640Z,4.70
2019-02-12T19:55:46.035Z,4.70
2019-02-12T20:00:51.454Z,4.60
2019-02-12T20:05:56.966Z,4.50
2019-02-12T20:11:02.344Z,4.50
2019-02-12T20:16:07.683Z,4.50
2019-02-12T20:21:13.128Z,4.40
2019-02-12T20:26:18.490Z,4.40
2019-02-12T20:31:23.929Z,4.30
2019-02-12T20:36:29.323Z,4.30
2019-02-12T20:41:34.748Z,4.30
2019-02-12T20:46:40.230Z,4.30
2019-02-12T20:51:45.551Z,4.30
2019-02-12T20:56:50.889Z,4.20
2019-02-12T21:01:56.288Z,4.20
2019-02-12T21:07:01.820Z,4.10
2019-02-12T21:12:07.308Z,4.00
2019-02-12T21:17:12.730Z,4.00
2019-02-12T21:22:18.345Z,4.00
2019-02-12T21:27:23.878Z,4.00
2019-02-12T21:32:29.451Z,3.90
2019-02-12T21:37:34.771Z,3.80
2019-02-12T21:42:40.271Z,3.70
2019-02-12T21:47:45.914Z,3.70
2019-02-12T21:52:51.368Z,3.60
2019-02-12T21:57:56.761Z,3.60
2019-02-12T22:03:02.214Z,3.50
2019-02-12T22:08:07.977Z,3.40
2019-02-12T22:13:13.783Z,3.40
2019-02-12T22:18:19.192Z,3.40
2019-02-12T22:23:28.323Z,3.30
2019-02-12T22:28:33.728Z,3.20
2019-02-12T22:33:39.178Z,3.20
2019-02-12T22:38:44.464Z,3.10
2019-02-12T22:43:49.816Z,3.10
2019-02-12T22:48:55.276Z,3.10
2019-02-12T22:54:00.657Z,3.10
2019-02-12T22:59:06.067Z,3.00
2019-02-12T23:04:11.442Z,3.00
2019-02-12T23:09:17.874Z,3.10
2019-02-12T23:14:23.247Z,3.20
2019-02-12T23:19:28.595Z,3.20
2019-02-12T23:24:34.005Z,3.20
2019-02-12T23:29:39.361Z,3.20
2019-02-12T23:34:44.708Z,3.20
2019-02-12T23:39:50.112Z,3.20
2019-02-12T23:44:57.722Z,3.20
2019-02-12T23:50:03.144Z,3.20
2019-02-12T23:55:08.724Z,3.20
